sensor_id;sensor_type;location;lat;lon;timestamp;P1;durP1;ratioP1;P2;durP2;ratioP2
44925;SDS011;30662;51.210;7.656;2022-12-07T09:14:32;27.85;;;18.80;;
44925;SDS011;30662;51.210;7.656;2022-12-07T09:17:05;27.52;;;18.33;;
44925;SDS011;30662;51.210;7.656;2022-12-07T09:19:35;28.80;;;18.65;;
44925;SDS011;30662;51.210;7.656;2022-12-07T09:22:01;27.10;;;17.10;;
44925;SDS011;30662;51.210;7.656;2022-12-07T09:24:28;29.23;;;18.90;;
44925;SDS011;30662;51.210;7.656;2022-12-07T09:26:54;31.63;;;20.10;;
44925;SDS011;30662;51.210;7.656;2022-12-07T09:29:19;26.90;;;18.90;;
44925;SDS011;30662;51.210;7.656;2022-12-07T09:31:45;32.95;;;20.50;;
44925;SDS011;30662;51.210;7.656;2022-12-07T09:34:11;26.40;;;19.08;;
44925;SDS011;30662;51.210;7.656;2022-12-07T09:36:37;25.17;;;18.40;;
44925;SDS011;30662;51.210;7.656;2022-12-07T09:39:03;27.33;;;18.42;;
44925;SDS011;30662;51.210;7.656;2022-12-07T09:41:30;30.88;;;20.83;;
44925;SDS011;30662;51.210;7.656;2022-12-07T09:43:59;33.53;;;22.20;;
44925;SDS011;30662;51.210;7.656;2022-12-07T09:46:30;31.60;;;20.63;;
44925;SDS011;30662;51.210;7.656;2022-12-07T09:49:04;33.80;;;20.75;;
44925;SDS011;30662;51.210;7.656;2022-12-07T09:51:30;28.90;;;19.88;;
44925;SDS011;30662;51.210;7.656;2022-12-07T09:53:57;30.88;;;20.60;;
44925;SDS011;30662;51.210;7.656;2022-12-07T09:56:24;32.38;;;19.63;;
44925;SDS011;30662;51.210;7.656;2022-12-07T09:58:52;34.97;;;19.92;;
44925;SDS011;30662;51.210;7.656;2022-12-07T10:01:24;31.08;;;18.73;;
44925;SDS011;30662;51.210;7.656;2022-12-07T10:03:54;32.88;;;19.98;;
44925;SDS011;30662;51.210;7.656;2022-12-07T10:06:26;33.92;;;21.63;;
44925;SDS011;30662;51.210;7.656;2022-12-07T10:08:51;28.75;;;20.02;;
44925;SDS011;30662;51.210;7.656;2022-12-07T10:11:17;34.83;;;21.52;;
44925;SDS011;30662;51.210;7.656;2022-12-07T10:13:44;32.03;;;20.85;;
44925;SDS011;30662;51.210;7.656;2022-12-07T10:16:31;38.75;;;22.15;;
44925;SDS011;30662;51.210;7.656;2022-12-07T10:24:56;34.70;;;19.70;;
44925;SDS011;30662;51.210;7.656;2022-12-07T10:27:34;34.80;;;20.30;;
44925;SDS011;30662;51.210;7.656;2022-12-07T10:30:01;38.33;;;21.92;;
44925;SDS011;30662;51.210;7.656;2022-12-07T10:32:34;29.58;;;18.42;;
44925;SDS011;30662;51.210;7.656;2022-12-07T10:35:18;32.08;;;20.88;;
44925;SDS011;30662;51.210;7.656;2022-12-07T10:37:44;32.10;;;18.20;;
44925;SDS011;30662;51.210;7.656;2022-12-07T10:40:33;28.92;;;18.05;;
44925;SDS011;30662;51.210;7.656;2022-12-07T10:43:19;28.25;;;17.42;;
44925;SDS011;30662;51.210;7.656;2022-12-07T10:45:57;28.05;;;17.88;;
44925;SDS011;30662;51.210;7.656;2022-12-07T10:48:41;25.92;;;16.92;;
44925;SDS011;30662;51.210;7.656;2022-12-07T10:54:21;23.00;;;14.80;;
44925;SDS011;30662;51.210;7.656;2022-12-07T10:57:11;30.95;;;17.33;;
44925;SDS011;30662;51.210;7.656;2022-12-07T11:07:20;20.55;;;14.35;;
44925;SDS011;30662;51.210;7.656;2022-12-07T11:18:15;24.13;;;15.45;;
44925;SDS011;30662;51.210;7.656;2022-12-07T11:20:46;21.60;;;13.43;;
44925;SDS011;30662;51.210;7.656;2022-12-07T11:23:36;21.85;;;13.80;;
44925;SDS011;30662;51.210;7.656;2022-12-07T11:36:46;15.57;;;11.63;;
44925;SDS011;30662;51.210;7.656;2022-12-07T11:39:22;16.02;;;9.80;;
44925;SDS011;30662;51.210;7.656;2022-12-07T11:41:55;16.38;;;9.25;;
44925;SDS011;30662;51.210;7.656;2022-12-07T11:44:35;13.45;;;9.45;;
44925;SDS011;30662;51.210;7.656;2022-12-07T11:50:26;12.27;;;9.20;;
44925;SDS011;30662;51.210;7.656;2022-12-07T11:52:58;17.80;;;11.63;;
44925;SDS011;30662;51.210;7.656;2022-12-07T12:06:27;14.68;;;11.80;;
44925;SDS011;30662;51.210;7.656;2022-12-07T12:09:15;18.33;;;11.93;;
44925;SDS011;30662;51.210;7.656;2022-12-07T12:18:22;21.88;;;13.25;;
44925;SDS011;30662;51.210;7.656;2022-12-07T12:21:03;21.65;;;14.15;;
44925;SDS011;30662;51.210;7.656;2022-12-07T12:24:03;21.95;;;14.23;;
44925;SDS011;30662;51.210;7.656;2022-12-07T12:26:36;22.33;;;14.27;;
44925;SDS011;30662;51.210;7.656;2022-12-07T12:29:05;21.13;;;13.82;;
44925;SDS011;30662;51.210;7.656;2022-12-07T12:31:43;20.38;;;14.60;;
44925;SDS011;30662;51.210;7.656;2022-12-07T12:34:32;21.20;;;14.35;;
44925;SDS011;30662;51.210;7.656;2022-12-07T12:40:12;21.10;;;14.43;;
44925;SDS011;30662;51.210;7.656;2022-12-07T12:42:52;22.48;;;14.75;;
44925;SDS011;30662;51.210;7.656;2022-12-07T12:50:29;22.47;;;14.60;;
44925;SDS011;30662;51.210;7.656;2022-12-07T12:53:00;20.95;;;14.32;;
44925;SDS011;30662;51.210;7.656;2022-12-07T12:55:45;22.85;;;14.45;;
44925;SDS011;30662;51.210;7.656;2022-12-07T12:58:30;18.35;;;14.07;;
44925;SDS011;30662;51.210;7.656;2022-12-07T13:03:55;21.33;;;15.07;;
44925;SDS011;30662;51.210;7.656;2022-12-07T13:08:51;20.83;;;14.52;;
44925;SDS011;30662;51.210;7.656;2022-12-07T13:11:20;23.05;;;15.65;;
44925;SDS011;30662;51.210;7.656;2022-12-07T13:17:00;21.67;;;14.85;;
44925;SDS011;30662;51.210;7.656;2022-12-07T13:19:52;21.60;;;14.68;;
44925;SDS011;30662;51.210;7.656;2022-12-07T13:22:35;20.63;;;14.43;;
44925;SDS011;30662;51.210;7.656;2022-12-07T13:25:12;22.75;;;15.13;;
44925;SDS011;30662;51.210;7.656;2022-12-07T13:27:57;20.02;;;14.68;;
44925;SDS011;30662;51.210;7.656;2022-12-07T13:30:27;24.00;;;16.13;;
44925;SDS011;30662;51.210;7.656;2022-12-07T13:32:56;25.80;;;14.55;;
44925;SDS011;30662;51.210;7.656;2022-12-07T13:35:42;20.50;;;14.13;;
44925;SDS011;30662;51.210;7.656;2022-12-07T13:40:59;15.23;;;13.07;;
44925;SDS011;30662;51.210;7.656;2022-12-07T13:44:12;14.48;;;12.15;;
44925;SDS011;30662;51.210;7.656;2022-12-07T13:46:47;19.98;;;12.85;;
44925;SDS011;30662;51.210;7.656;2022-12-07T13:49:38;18.88;;;12.43;;
44925;SDS011;30662;51.210;7.656;2022-12-07T13:52:30;25.27;;;13.48;;
44925;SDS011;30662;51.210;7.656;2022-12-07T13:57:33;19.88;;;11.80;;
44925;SDS011;30662;51.210;7.656;2022-12-07T14:00:03;23.40;;;13.15;;
44925;SDS011;30662;51.210;7.656;2022-12-07T14:02:54;13.93;;;12.45;;
44925;SDS011;30662;51.210;7.656;2022-12-07T14:05:25;17.70;;;13.35;;
44925;SDS011;30662;51.210;7.656;2022-12-07T14:10:27;20.25;;;13.30;;
44925;SDS011;30662;51.210;7.656;2022-12-07T14:12:53;23.83;;;13.27;;
44925;SDS011;30662;51.210;7.656;2022-12-07T14:15:21;18.05;;;13.05;;
44925;SDS011;30662;51.210;7.656;2022-12-07T14:17:50;19.75;;;13.85;;
44925;SDS011;30662;51.210;7.656;2022-12-07T14:20:36;19.60;;;12.90;;
44925;SDS011;30662;51.210;7.656;2022-12-07T14:23:04;19.05;;;14.30;;
44925;SDS011;30662;51.210;7.656;2022-12-07T14:25:47;18.77;;;13.95;;
44925;SDS011;30662;51.210;7.656;2022-12-07T14:28:32;24.95;;;13.77;;
44925;SDS011;30662;51.210;7.656;2022-12-07T14:31:00;25.95;;;14.00;;
44925;SDS011;30662;51.210;7.656;2022-12-07T14:33:27;19.42;;;15.05;;
44925;SDS011;30662;51.210;7.656;2022-12-07T14:35:53;18.33;;;13.63;;
44925;SDS011;30662;51.210;7.656;2022-12-07T14:38:23;18.83;;;13.60;;
44925;SDS011;30662;51.210;7.656;2022-12-07T14:40:51;20.25;;;13.15;;
44925;SDS011;30662;51.210;7.656;2022-12-07T14:43:19;22.45;;;14.32;;
44925;SDS011;30662;51.210;7.656;2022-12-07T14:45:46;27.58;;;16.25;;
44925;SDS011;30662;51.210;7.656;2022-12-07T14:48:12;23.73;;;15.38;;
44925;SDS011;30662;51.210;7.656;2022-12-07T14:51:00;22.40;;;15.38;;
44925;SDS011;30662;51.210;7.656;2022-12-07T14:53:48;20.20;;;15.10;;
44925;SDS011;30662;51.210;7.656;2022-12-07T14:56:22;20.10;;;14.90;;
44925;SDS011;30662;51.210;7.656;2022-12-07T14:58:48;21.42;;;14.88;;
44925;SDS011;30662;51.210;7.656;2022-12-07T15:01:14;17.42;;;14.50;;
44925;SDS011;30662;51.210;7.656;2022-12-07T15:03:40;21.02;;;14.32;;
44925;SDS011;30662;51.210;7.656;2022-12-07T15:06:06;21.20;;;12.77;;
44925;SDS011;30662;51.210;7.656;2022-12-07T15:08:32;17.75;;;12.73;;
44925;SDS011;30662;51.210;7.656;2022-12-07T15:10:58;13.98;;;10.38;;
44925;SDS011;30662;51.210;7.656;2022-12-07T15:13:24;15.98;;;8.38;;
44925;SDS011;30662;51.210;7.656;2022-12-07T15:16:10;15.70;;;7.75;;
44925;SDS011;30662;51.210;7.656;2022-12-07T15:18:38;9.77;;;6.90;;
44925;SDS011;30662;51.210;7.656;2022-12-07T15:21:14;11.07;;;7.00;;
44925;SDS011;30662;51.210;7.656;2022-12-07T15:23:41;11.93;;;7.18;;
44925;SDS011;30662;51.210;7.656;2022-12-07T15:26:09;17.05;;;7.95;;
44925;SDS011;30662;51.210;7.656;2022-12-07T15:28:36;11.05;;;7.85;;
44925;SDS011;30662;51.210;7.656;2022-12-07T15:31:02;13.60;;;8.55;;
44925;SDS011;30662;51.210;7.656;2022-12-07T15:33:48;13.73;;;9.43;;
44925;SDS011;30662;51.210;7.656;2022-12-07T15:36:21;14.45;;;8.95;;
44925;SDS011;30662;51.210;7.656;2022-12-07T15:38:48;12.43;;;7.70;;
44925;SDS011;30662;51.210;7.656;2022-12-07T15:41:35;16.80;;;10.38;;
44925;SDS011;30662;51.210;7.656;2022-12-07T15:44:01;20.00;;;9.45;;
44925;SDS011;30662;51.210;7.656;2022-12-07T15:46:45;16.58;;;9.57;;
44925;SDS011;30662;51.210;7.656;2022-12-07T15:49:13;19.30;;;11.25;;
44925;SDS011;30662;51.210;7.656;2022-12-07T15:51:44;19.30;;;11.68;;
44925;SDS011;30662;51.210;7.656;2022-12-07T15:54:12;17.55;;;11.73;;
44925;SDS011;30662;51.210;7.656;2022-12-07T15:56:41;19.10;;;12.20;;
44925;SDS011;30662;51.210;7.656;2022-12-07T15:59:07;15.85;;;11.80;;
44925;SDS011;30662;51.210;7.656;2022-12-07T16:01:33;16.67;;;11.43;;
44925;SDS011;30662;51.210;7.656;2022-12-07T16:03:59;23.20;;;12.52;;
44925;SDS011;30662;51.210;7.656;2022-12-07T16:06:25;16.25;;;12.65;;
44925;SDS011;30662;51.210;7.656;2022-12-07T16:08:51;22.15;;;13.50;;
44925;SDS011;30662;51.210;7.656;2022-12-07T16:11:17;20.52;;;12.48;;
44925;SDS011;30662;51.210;7.656;2022-12-07T16:13:43;16.15;;;11.63;;
44925;SDS011;30662;51.210;7.656;2022-12-07T16:16:10;17.92;;;11.23;;
44925;SDS011;30662;51.210;7.656;2022-12-07T16:18:39;19.42;;;11.77;;
44925;SDS011;30662;51.210;7.656;2022-12-07T16:21:05;19.42;;;11.85;;
44925;SDS011;30662;51.210;7.656;2022-12-07T16:23:31;15.38;;;10.73;;
44925;SDS011;30662;51.210;7.656;2022-12-07T16:28:50;19.58;;;11.00;;
44925;SDS011;30662;51.210;7.656;2022-12-07T16:31:19;16.58;;;10.10;;
44925;SDS011;30662;51.210;7.656;2022-12-07T16:33:47;15.98;;;9.75;;
44925;SDS011;30662;51.210;7.656;2022-12-07T16:36:14;17.40;;;10.48;;
44925;SDS011;30662;51.210;7.656;2022-12-07T16:38:53;14.82;;;10.07;;
44925;SDS011;30662;51.210;7.656;2022-12-07T16:41:19;18.38;;;11.13;;
44925;SDS011;30662;51.210;7.656;2022-12-07T16:43:46;15.73;;;10.75;;
44925;SDS011;30662;51.210;7.656;2022-12-07T16:46:12;14.38;;;10.77;;
44925;SDS011;30662;51.210;7.656;2022-12-07T16:48:38;14.10;;;9.57;;
44925;SDS011;30662;51.210;7.656;2022-12-07T16:51:06;14.32;;;9.70;;
44925;SDS011;30662;51.210;7.656;2022-12-07T16:53:34;16.20;;;10.35;;
44925;SDS011;30662;51.210;7.656;2022-12-07T16:56:02;13.15;;;10.45;;
44925;SDS011;30662;51.210;7.656;2022-12-07T16:58:28;13.48;;;9.57;;
44925;SDS011;30662;51.210;7.656;2022-12-07T17:00:54;16.77;;;10.40;;
44925;SDS011;30662;51.210;7.656;2022-12-07T17:03:20;19.20;;;10.55;;
44925;SDS011;30662;51.210;7.656;2022-12-07T17:05:46;15.45;;;10.65;;
44925;SDS011;30662;51.210;7.656;2022-12-07T17:08:12;16.70;;;10.90;;
44925;SDS011;30662;51.210;7.656;2022-12-07T17:10:40;13.18;;;9.65;;
44925;SDS011;30662;51.210;7.656;2022-12-07T17:13:08;23.08;;;9.82;;
44925;SDS011;30662;51.210;7.656;2022-12-07T17:15:56;21.48;;;11.00;;
44925;SDS011;30662;51.210;7.656;2022-12-07T17:18:23;16.83;;;11.38;;
44925;SDS011;30662;51.210;7.656;2022-12-07T17:20:49;17.27;;;10.98;;
44925;SDS011;30662;51.210;7.656;2022-12-07T17:23:15;15.88;;;12.18;;
44925;SDS011;30662;51.210;7.656;2022-12-07T17:25:40;18.80;;;11.10;;
44925;SDS011;30662;51.210;7.656;2022-12-07T17:28:06;17.10;;;11.35;;
44925;SDS011;30662;51.210;7.656;2022-12-07T17:30:32;20.67;;;11.57;;
44925;SDS011;30662;51.210;7.656;2022-12-07T17:32:58;17.63;;;12.10;;
44925;SDS011;30662;51.210;7.656;2022-12-07T17:35:24;22.08;;;12.35;;
44925;SDS011;30662;51.210;7.656;2022-12-07T17:37:50;19.70;;;12.60;;
44925;SDS011;30662;51.210;7.656;2022-12-07T17:40:16;20.77;;;12.65;;
44925;SDS011;30662;51.210;7.656;2022-12-07T17:42:42;22.35;;;14.10;;
44925;SDS011;30662;51.210;7.656;2022-12-07T17:45:12;17.13;;;13.75;;
44925;SDS011;30662;51.210;7.656;2022-12-07T17:47:38;23.70;;;13.80;;
44925;SDS011;30662;51.210;7.656;2022-12-07T17:50:05;15.82;;;13.45;;
44925;SDS011;30662;51.210;7.656;2022-12-07T17:52:33;19.20;;;14.65;;
44925;SDS011;30662;51.210;7.656;2022-12-07T17:55:17;23.65;;;15.93;;
44925;SDS011;30662;51.210;7.656;2022-12-07T17:57:43;24.58;;;16.30;;
44925;SDS011;30662;51.210;7.656;2022-12-07T18:00:10;24.00;;;16.90;;
44925;SDS011;30662;51.210;7.656;2022-12-07T18:02:37;31.25;;;19.35;;
44925;SDS011;30662;51.210;7.656;2022-12-07T18:05:03;28.23;;;18.55;;
44925;SDS011;30662;51.210;7.656;2022-12-07T18:07:30;28.17;;;19.83;;
44925;SDS011;30662;51.210;7.656;2022-12-07T18:09:56;27.02;;;19.52;;
44925;SDS011;30662;51.210;7.656;2022-12-07T18:12:22;26.83;;;21.20;;
44925;SDS011;30662;51.210;7.656;2022-12-07T18:14:48;29.40;;;21.52;;
44925;SDS011;30662;51.210;7.656;2022-12-07T18:17:16;31.90;;;22.55;;
44925;SDS011;30662;51.210;7.656;2022-12-07T18:19:42;31.63;;;22.90;;
44925;SDS011;30662;51.210;7.656;2022-12-07T18:22:08;29.63;;;22.60;;
44925;SDS011;30662;51.210;7.656;2022-12-07T18:24:35;29.35;;;23.35;;
44925;SDS011;30662;51.210;7.656;2022-12-07T18:27:03;30.55;;;23.83;;
44925;SDS011;30662;51.210;7.656;2022-12-07T18:29:30;32.35;;;24.13;;
44925;SDS011;30662;51.210;7.656;2022-12-07T18:31:56;34.17;;;25.30;;
44925;SDS011;30662;51.210;7.656;2022-12-07T18:34:22;35.40;;;27.25;;
44925;SDS011;30662;51.210;7.656;2022-12-07T18:36:48;40.72;;;27.75;;
44925;SDS011;30662;51.210;7.656;2022-12-07T18:39:15;35.70;;;25.88;;
44925;SDS011;30662;51.210;7.656;2022-12-07T18:41:42;35.25;;;26.00;;
44925;SDS011;30662;51.210;7.656;2022-12-07T18:44:09;36.10;;;27.45;;
44925;SDS011;30662;51.210;7.656;2022-12-07T18:46:37;35.15;;;26.73;;
44925;SDS011;30662;51.210;7.656;2022-12-07T18:49:05;39.55;;;29.38;;
44925;SDS011;30662;51.210;7.656;2022-12-07T18:51:31;36.97;;;28.08;;
44925;SDS011;30662;51.210;7.656;2022-12-07T18:53:58;39.53;;;28.17;;
44925;SDS011;30662;51.210;7.656;2022-12-07T18:56:25;36.60;;;27.58;;
44925;SDS011;30662;51.210;7.656;2022-12-07T18:58:56;35.83;;;25.60;;
44925;SDS011;30662;51.210;7.656;2022-12-07T19:01:42;35.00;;;26.42;;
44925;SDS011;30662;51.210;7.656;2022-12-07T19:04:10;32.00;;;25.27;;
44925;SDS011;30662;51.210;7.656;2022-12-07T19:06:36;36.47;;;24.40;;
44925;SDS011;30662;51.210;7.656;2022-12-07T19:09:03;33.15;;;25.08;;
44925;SDS011;30662;51.210;7.656;2022-12-07T19:11:30;32.95;;;24.48;;
44925;SDS011;30662;51.210;7.656;2022-12-07T19:14:29;30.60;;;22.88;;
44925;SDS011;30662;51.210;7.656;2022-12-07T19:16:58;37.00;;;25.20;;
44925;SDS011;30662;51.210;7.656;2022-12-07T19:19:34;29.27;;;23.60;;
44925;SDS011;30662;51.210;7.656;2022-12-07T19:22:02;34.20;;;25.92;;
44925;SDS011;30662;51.210;7.656;2022-12-07T19:24:28;30.65;;;25.00;;
44925;SDS011;30662;51.210;7.656;2022-12-07T19:26:55;33.28;;;24.55;;
44925;SDS011;30662;51.210;7.656;2022-12-07T19:29:21;34.20;;;25.60;;
44925;SDS011;30662;51.210;7.656;2022-12-07T19:31:47;33.47;;;24.77;;
44925;SDS011;30662;51.210;7.656;2022-12-07T19:34:14;32.17;;;26.40;;
44925;SDS011;30662;51.210;7.656;2022-12-07T19:36:42;37.88;;;26.13;;
44925;SDS011;30662;51.210;7.656;2022-12-07T19:39:08;33.28;;;24.73;;
44925;SDS011;30662;51.210;7.656;2022-12-07T19:41:40;28.67;;;24.77;;
44925;SDS011;30662;51.210;7.656;2022-12-07T19:46:39;29.58;;;24.02;;
44925;SDS011;30662;51.210;7.656;2022-12-07T19:49:05;29.00;;;22.23;;
44925;SDS011;30662;51.210;7.656;2022-12-07T19:51:32;29.70;;;22.63;;
44925;SDS011;30662;51.210;7.656;2022-12-07T19:53:58;28.15;;;21.35;;
44925;SDS011;30662;51.210;7.656;2022-12-07T19:56:26;26.35;;;21.98;;
44925;SDS011;30662;51.210;7.656;2022-12-07T19:58:53;23.88;;;20.92;;
44925;SDS011;30662;51.210;7.656;2022-12-07T20:01:20;28.25;;;21.10;;
44925;SDS011;30662;51.210;7.656;2022-12-07T20:03:47;23.50;;;20.83;;
44925;SDS011;30662;51.210;7.656;2022-12-07T20:06:15;24.85;;;21.65;;
44925;SDS011;30662;51.210;7.656;2022-12-07T20:08:44;29.08;;;22.33;;
44925;SDS011;30662;51.210;7.656;2022-12-07T20:11:12;29.67;;;21.63;;
44925;SDS011;30662;51.210;7.656;2022-12-07T20:13:58;23.20;;;20.65;;
44925;SDS011;30662;51.210;7.656;2022-12-07T20:16:24;25.08;;;21.42;;
44925;SDS011;30662;51.210;7.656;2022-12-07T20:18:51;26.85;;;21.63;;
44925;SDS011;30662;51.210;7.656;2022-12-07T20:21:23;24.35;;;20.33;;
44925;SDS011;30662;51.210;7.656;2022-12-07T20:23:49;26.55;;;21.13;;
44925;SDS011;30662;51.210;7.656;2022-12-07T20:26:15;30.13;;;21.25;;
44925;SDS011;30662;51.210;7.656;2022-12-07T20:28:41;26.55;;;21.30;;
44925;SDS011;30662;51.210;7.656;2022-12-07T20:31:14;26.60;;;21.65;;
44925;SDS011;30662;51.210;7.656;2022-12-07T20:33:41;26.60;;;21.60;;
44925;SDS011;30662;51.210;7.656;2022-12-07T20:36:12;23.33;;;20.77;;
44925;SDS011;30662;51.210;7.656;2022-12-07T20:38:40;27.40;;;22.00;;
44925;SDS011;30662;51.210;7.656;2022-12-07T20:41:07;27.45;;;20.67;;
44925;SDS011;30662;51.210;7.656;2022-12-07T20:43:53;29.83;;;22.60;;
44925;SDS011;30662;51.210;7.656;2022-12-07T20:46:19;29.77;;;22.85;;
44925;SDS011;30662;51.210;7.656;2022-12-07T20:48:45;29.17;;;23.17;;
44925;SDS011;30662;51.210;7.656;2022-12-07T20:51:11;27.55;;;22.80;;
44925;SDS011;30662;51.210;7.656;2022-12-07T20:53:37;33.88;;;23.67;;
44925;SDS011;30662;51.210;7.656;2022-12-07T20:56:02;33.03;;;22.95;;
44925;SDS011;30662;51.210;7.656;2022-12-07T20:58:28;31.00;;;24.30;;
44925;SDS011;30662;51.210;7.656;2022-12-07T21:01:01;30.25;;;23.50;;
44925;SDS011;30662;51.210;7.656;2022-12-07T21:03:28;29.08;;;23.67;;
44925;SDS011;30662;51.210;7.656;2022-12-07T21:05:54;25.95;;;22.75;;
44925;SDS011;30662;51.210;7.656;2022-12-07T21:08:20;32.40;;;25.10;;
44925;SDS011;30662;51.210;7.656;2022-12-07T21:10:46;30.25;;;24.10;;
44925;SDS011;30662;51.210;7.656;2022-12-07T21:13:12;29.30;;;23.42;;
44925;SDS011;30662;51.210;7.656;2022-12-07T21:15:38;33.03;;;23.77;;
44925;SDS011;30662;51.210;7.656;2022-12-07T21:18:04;30.02;;;23.17;;
44925;SDS011;30662;51.210;7.656;2022-12-07T21:20:32;29.02;;;22.45;;
44925;SDS011;30662;51.210;7.656;2022-12-07T21:22:58;32.22;;;23.48;;
44925;SDS011;30662;51.210;7.656;2022-12-07T21:25:24;33.38;;;23.33;;
44925;SDS011;30662;51.210;7.656;2022-12-07T21:27:50;31.35;;;23.38;;
44925;SDS011;30662;51.210;7.656;2022-12-07T21:30:16;28.15;;;23.58;;
44925;SDS011;30662;51.210;7.656;2022-12-07T21:32:42;29.98;;;24.48;;
44925;SDS011;30662;51.210;7.656;2022-12-07T21:35:08;33.63;;;24.92;;
44925;SDS011;30662;51.210;7.656;2022-12-07T21:37:34;30.15;;;22.92;;
44925;SDS011;30662;51.210;7.656;2022-12-07T21:40:00;29.08;;;21.35;;
44925;SDS011;30662;51.210;7.656;2022-12-07T21:42:26;31.05;;;21.85;;
44925;SDS011;30662;51.210;7.656;2022-12-07T21:44:52;28.58;;;21.45;;
44925;SDS011;30662;51.210;7.656;2022-12-07T21:47:18;27.02;;;21.20;;
44925;SDS011;30662;51.210;7.656;2022-12-07T21:49:44;28.05;;;20.40;;
44925;SDS011;30662;51.210;7.656;2022-12-07T21:52:10;29.25;;;21.95;;
44925;SDS011;30662;51.210;7.656;2022-12-07T21:54:36;27.92;;;21.05;;
44925;SDS011;30662;51.210;7.656;2022-12-07T21:57:02;23.92;;;20.38;;
44925;SDS011;30662;51.210;7.656;2022-12-07T21:59:28;25.33;;;19.17;;
44925;SDS011;30662;51.210;7.656;2022-12-07T22:01:53;24.30;;;19.60;;
44925;SDS011;30662;51.210;7.656;2022-12-07T22:04:23;25.27;;;18.25;;
44925;SDS011;30662;51.210;7.656;2022-12-07T22:06:50;23.77;;;18.48;;
44925;SDS011;30662;51.210;7.656;2022-12-07T22:09:17;25.92;;;18.00;;
44925;SDS011;30662;51.210;7.656;2022-12-07T22:11:44;21.75;;;17.75;;
44925;SDS011;30662;51.210;7.656;2022-12-07T22:14:10;26.98;;;18.27;;
44925;SDS011;30662;51.210;7.656;2022-12-07T22:16:55;25.05;;;17.10;;
44925;SDS011;30662;51.210;7.656;2022-12-07T22:19:22;20.60;;;16.20;;
44925;SDS011;30662;51.210;7.656;2022-12-07T22:21:48;21.17;;;17.02;;
44925;SDS011;30662;51.210;7.656;2022-12-07T22:24:14;24.85;;;17.85;;
44925;SDS011;30662;51.210;7.656;2022-12-07T22:26:40;25.25;;;18.15;;
44925;SDS011;30662;51.210;7.656;2022-12-07T22:29:07;25.25;;;17.40;;
44925;SDS011;30662;51.210;7.656;2022-12-07T22:31:33;24.48;;;18.27;;
44925;SDS011;30662;51.210;7.656;2022-12-07T22:34:00;27.95;;;17.65;;
44925;SDS011;30662;51.210;7.656;2022-12-07T22:36:25;23.15;;;17.90;;
44925;SDS011;30662;51.210;7.656;2022-12-07T22:38:53;24.38;;;17.83;;
44925;SDS011;30662;51.210;7.656;2022-12-07T22:43:53;19.15;;;16.35;;
44925;SDS011;30662;51.210;7.656;2022-12-07T22:46:19;21.60;;;16.95;;
44925;SDS011;30662;51.210;7.656;2022-12-07T22:48:45;23.45;;;16.15;;
44925;SDS011;30662;51.210;7.656;2022-12-07T22:51:25;22.90;;;17.40;;
44925;SDS011;30662;51.210;7.656;2022-12-07T22:53:53;19.88;;;16.63;;
44925;SDS011;30662;51.210;7.656;2022-12-07T22:56:19;23.40;;;16.77;;
44925;SDS011;30662;51.210;7.656;2022-12-07T22:58:46;22.85;;;17.08;;
44925;SDS011;30662;51.210;7.656;2022-12-07T23:01:14;27.27;;;17.45;;
44925;SDS011;30662;51.210;7.656;2022-12-07T23:03:42;24.60;;;16.80;;
44925;SDS011;30662;51.210;7.656;2022-12-07T23:06:09;24.83;;;16.58;;
44925;SDS011;30662;51.210;7.656;2022-12-07T23:08:39;24.85;;;17.60;;
44925;SDS011;30662;51.210;7.656;2022-12-07T23:11:07;23.02;;;16.85;;
44925;SDS011;30662;51.210;7.656;2022-12-07T23:13:34;23.25;;;18.13;;
44925;SDS011;30662;51.210;7.656;2022-12-07T23:16:12;25.60;;;17.02;;
44925;SDS011;30662;51.210;7.656;2022-12-07T23:18:40;26.23;;;17.55;;
44925;SDS011;30662;51.210;7.656;2022-12-07T23:21:07;23.67;;;16.60;;
44925;SDS011;30662;51.210;7.656;2022-12-07T23:23:33;23.30;;;18.20;;
44925;SDS011;30662;51.210;7.656;2022-12-07T23:26:01;22.92;;;16.92;;
44925;SDS011;30662;51.210;7.656;2022-12-07T23:28:28;22.00;;;16.52;;
44925;SDS011;30662;51.210;7.656;2022-12-07T23:30:59;22.92;;;15.55;;
44925;SDS011;30662;51.210;7.656;2022-12-07T23:33:39;21.98;;;16.42;;
44925;SDS011;30662;51.210;7.656;2022-12-07T23:36:10;23.75;;;17.08;;
44925;SDS011;30662;51.210;7.656;2022-12-07T23:38:45;22.10;;;16.05;;
44925;SDS011;30662;51.210;7.656;2022-12-07T23:41:14;26.75;;;16.55;;
44925;SDS011;30662;51.210;7.656;2022-12-07T23:43:41;22.20;;;17.60;;
44925;SDS011;30662;51.210;7.656;2022-12-07T23:46:13;21.92;;;17.27;;
44925;SDS011;30662;51.210;7.656;2022-12-07T23:48:41;19.70;;;14.30;;
44925;SDS011;30662;51.210;7.656;2022-12-07T23:51:08;19.95;;;16.10;;
44925;SDS011;30662;51.210;7.656;2022-12-07T23:53:35;22.17;;;16.48;;
44925;SDS011;30662;51.210;7.656;2022-12-07T23:56:02;22.45;;;16.27;;
44925;SDS011;30662;51.210;7.656;2022-12-07T23:58:29;23.20;;;16.35;;
